Time;durP1;ratioP1;P1;durP2;ratioP2;P2;SDS_P1;SDS_P2;PMS_P1;PMS_P2;Temp;Humidity;BMP_temperature;BMP_pressure;BME280_temperature;BME280_humidity;BME280_pressure;Samples;Min_cycle;Max_cycle;Signal;HPM_P1;HPM_P2
2022/07/04 00:02:10;;;;;;;5.07;2.92;;;;;;;21.25;59.23;94846.09;5093350;28;20219;-81
2022/07/04 00:04:38;;;;;;;3.70;1.85;;;;;;;21.11;59.80;94840.53;5094554;28;20615;-85
2022/07/04 00:07:05;;;;;;;2.30;1.85;;;;;;;21.03;60.04;94844.47;5093946;28;20248;-72
2022/07/04 00:09:32;;;;;;;1.85;1.50;;;;;;;21.01;60.12;94852.31;5092800;28;20244;-88
2022/07/04 00:11:59;;;;;;;2.33;1.73;;;;;;;20.95;60.60;94859.38;5092517;28;20882;-84
2022/07/04 00:14:26;;;;;;;2.90;2.30;;;;;;;20.86;61.39;94850.69;5092674;28;20248;-83
2022/07/04 00:16:52;;;;;;;5.38;2.30;;;;;;;20.79;62.03;94856.94;5093015;28;20201;-86
2022/07/04 00:19:19;;;;;;;3.47;2.20;;;;;;;20.70;63.02;94852.97;5093913;28;20222;-88
2022/07/04 00:21:47;;;;;;;2.83;2.25;;;;;;;20.66;63.32;94854.91;5094421;28;20222;-86
2022/07/04 00:24:14;;;;;;;3.83;2.20;;;;;;;20.51;62.97;94840.28;5092956;28;20665;-84
2022/07/04 00:26:41;;;;;;;7.82;2.15;;;;;;;20.51;62.91;94852.09;5094173;28;20272;-84
2022/07/04 00:29:08;;;;;;;3.20;2.25;;;;;;;20.49;63.10;94851.72;5085237;28;20578;-84
2022/07/04 00:31:35;;;;;;;2.25;1.90;;;;;;;20.49;62.76;94837.16;5088900;28;20233;-83
2022/07/04 00:34:02;;;;;;;6.00;2.03;;;;;;;20.43;62.91;94825.72;5094011;28;20256;-87
2022/07/04 00:36:29;;;;;;;2.75;1.83;;;;;;;20.40;62.91;94840.25;5094939;28;20198;-84
2022/07/04 00:38:57;;;;;;;3.30;2.03;;;;;;;20.33;62.87;94842.94;5094604;28;20682;-87
2022/07/04 00:41:24;;;;;;;2.47;1.92;;;;;;;20.22;63.39;94844.84;5095007;28;20202;-88
2022/07/04 00:44:01;;;;;;;2.03;1.88;;;;;;;20.21;63.37;94854.25;5094762;28;20658;-86
2022/07/04 00:46:29;;;;;;;2.45;2.05;;;;;;;20.16;63.57;94847.16;5093829;28;20228;-88
2022/07/04 00:48:55;;;;;;;3.90;2.95;;;;;;;20.12;63.55;94840.03;5094636;28;20198;-88
2022/07/04 00:51:23;;;;;;;2.33;2.00;;;;;;;20.02;63.88;94841.56;5094295;28;20233;-88
2022/07/04 00:53:51;;;;;;;2.38;2.13;;;;;;;20.01;63.68;94839.19;5093491;28;20230;-81
2022/07/04 00:56:20;;;;;;;2.35;1.85;;;;;;;20.00;63.75;94843.09;5093023;28;20332;-86
2022/07/04 00:58:46;;;;;;;3.08;1.92;;;;;;;19.95;63.74;94833.25;5093946;28;20260;-83
2022/07/04 01:01:14;;;;;;;4.10;1.98;;;;;;;19.99;63.60;94836.81;5093085;28;20256;-88
2022/07/04 01:03:41;;;;;;;4.45;1.73;;;;;;;19.96;63.63;94842.28;5094319;28;20202;-84
2022/07/04 01:06:08;;;;;;;2.22;1.75;;;;;;;19.95;63.43;94829.72;5093492;28;20222;-83
2022/07/04 01:08:35;;;;;;;2.67;2.08;;;;;;;19.84;63.60;94835.91;5092819;28;20306;-86
2022/07/04 01:11:02;;;;;;;2.53;1.90;;;;;;;19.87;62.94;94829.66;5093084;28;20267;-84
2022/07/04 01:13:30;;;;;;;3.08;1.85;;;;;;;19.84;63.14;94824.91;5093959;28;20665;-86
2022/07/04 01:15:57;;;;;;;2.85;1.80;;;;;;;19.81;63.09;94828.44;5093743;28;20232;-84
2022/07/04 01:18:24;;;;;;;4.30;2.25;;;;;;;19.83;62.63;94828.84;5092011;28;20246;-88
2022/07/04 01:20:52;;;;;;;5.32;1.95;;;;;;;19.79;62.63;94821.75;5092350;28;20226;-85
2022/07/04 01:23:19;;;;;;;2.20;1.70;;;;;;;19.72;62.98;94830.72;5092165;28;20271;-78
2022/07/04 01:25:46;;;;;;;2.25;1.55;;;;;;;19.67;62.98;94833.84;5091871;28;20242;-82
2022/07/04 01:28:14;;;;;;;3.05;1.90;;;;;;;19.66;63.02;94840.50;5091857;28;20267;-81
2022/07/04 01:30:40;;;;;;;7.03;2.15;;;;;;;19.60;63.28;94842.00;5092516;28;20817;-84
2022/07/04 01:33:07;;;;;;;3.70;1.95;;;;;;;19.55;63.23;94839.59;5092849;28;20222;-85
2022/07/04 01:35:34;;;;;;;2.15;1.40;;;;;;;19.54;63.17;94835.28;5093981;28;20696;-85
2022/07/04 01:38:02;;;;;;;2.25;1.75;;;;;;;19.55;63.10;94836.06;5092435;28;20610;-86
2022/07/04 01:40:29;;;;;;;6.18;1.98;;;;;;;19.54;63.18;94837.25;5092231;28;20276;-88
2022/07/04 01:42:58;;;;;;;5.28;1.90;;;;;;;19.47;63.24;94833.22;5094420;28;20213;-87
2022/07/04 01:45:25;;;;;;;2.75;1.65;;;;;;;19.44;63.39;94844.97;5093313;28;20230;-82
2022/07/04 01:47:52;;;;;;;2.50;1.73;;;;;;;19.44;63.23;94839.47;5092493;28;20583;-85
2022/07/04 01:50:19;;;;;;;4.13;1.77;;;;;;;19.42;63.08;94832.78;5093895;28;20283;-83
2022/07/04 01:52:46;;;;;;;2.50;1.70;;;;;;;19.46;62.93;94837.16;5092984;28;20240;-81
2022/07/04 01:55:14;;;;;;;4.03;2.25;;;;;;;19.41;63.00;94845.72;5092450;28;20271;-82
2022/07/04 01:57:41;;;;;;;3.03;2.05;;;;;;;19.39;63.00;94836.31;5092332;28;20294;-86
2022/07/04 02:02:56;;;;;;;3.10;1.90;;;;;;;19.33;63.02;94840.56;5080448;28;20682;-88
2022/07/04 02:05:23;;;;;;;1.55;1.38;;;;;;;19.34;63.16;94842.13;5092737;28;20202;-87
2022/07/04 02:07:49;;;;;;;1.58;1.40;;;;;;;19.36;63.19;94837.06;5094744;28;20210;-87
2022/07/04 02:10:18;;;;;;;2.03;1.80;;;;;;;19.34;63.28;94833.88;5096665;28;20206;-88
2022/07/04 02:13:02;;;;;;;3.22;2.10;;;;;;;19.30;63.22;94833.84;5097308;28;20582;-83
2022/07/04 02:15:29;;;;;;;3.72;1.80;;;;;;;19.32;63.23;94836.22;5097132;28;20222;-88
2022/07/04 02:17:56;;;;;;;1.73;1.48;;;;;;;19.28;63.41;94846.38;5096338;28;20312;-88
2022/07/04 02:20:23;;;;;;;2.03;1.40;;;;;;;19.15;64.40;94849.41;5100171;28;20260;-87
2022/07/04 02:22:50;;;;;;;3.80;1.92;;;;;;;19.10;64.08;94849.75;5098888;28;20222;-87
2022/07/04 02:25:19;;;;;;;4.43;1.95;;;;;;;19.09;64.34;94850.91;5093767;28;20280;-86
2022/07/04 02:27:45;;;;;;;3.83;2.22;;;;;;;19.12;63.89;94858.41;5095704;28;20243;-86
2022/07/04 02:30:13;;;;;;;2.70;1.67;;;;;;;19.14;63.97;94853.31;5096132;28;20241;-86
2022/07/04 02:32:40;;;;;;;2.95;1.77;;;;;;;19.14;63.69;94852.50;5095602;28;20701;-86
2022/07/04 02:35:08;;;;;;;1.90;1.70;;;;;;;19.13;63.62;94851.72;5096541;28;20218;-86
2022/07/04 02:37:35;;;;;;;6.97;1.73;;;;;;;19.02;63.86;94850.03;5097843;28;20259;-87
2022/07/04 02:40:02;;;;;;;5.00;1.77;;;;;;;19.04;64.08;94848.50;5083493;28;20279;-87
2022/07/04 02:42:32;;;;;;;5.85;1.85;;;;;;;19.06;64.54;94846.16;5095953;28;20225;-87
2022/07/04 02:44:59;;;;;;;3.10;2.00;;;;;;;19.03;64.59;94846.91;5083618;28;20637;-83
2022/07/04 02:47:26;;;;;;;3.17;1.80;;;;;;;18.92;65.31;94861.69;5096037;28;20218;-86
2022/07/04 02:49:53;;;;;;;3.40;1.70;;;;;;;18.84;65.39;94860.84;5083824;28;20256;-85
2022/07/04 02:52:20;;;;;;;6.93;2.05;;;;;;;18.89;66.31;94868.72;5097469;28;20234;-86
2022/07/04 02:54:48;;;;;;;2.70;1.83;;;;;;;18.77;65.33;94872.50;5083285;28;20194;-86
2022/07/04 02:57:16;;;;;;;1.80;1.40;;;;;;;18.89;65.35;94868.72;5097221;28;20226;-87
2022/07/04 02:59:44;;;;;;;3.15;1.75;;;;;;;18.87;65.44;94864.75;5097337;28;20622;-87
2022/07/04 03:02:11;;;;;;;1.70;1.42;;;;;;;18.80;66.75;94870.97;5096512;28;20241;-87
2022/07/04 03:04:39;;;;;;;2.65;1.77;;;;;;;18.90;65.60;94867.56;5096804;28;20203;-86
2022/07/04 03:07:07;;;;;;;3.00;2.15;;;;;;;18.95;65.28;94874.69;5095451;28;20217;-87
2022/07/04 03:09:34;;;;;;;5.47;1.63;;;;;;;19.03;65.17;94868.88;5098170;28;20294;-87
2022/07/04 03:12:01;;;;;;;2.00;1.80;;;;;;;19.16;64.84;94870.19;5095356;28;20362;-87
2022/07/04 03:14:28;;;;;;;3.95;1.70;;;;;;;19.35;63.80;94882.19;5096002;28;20222;-87
2022/07/04 03:16:56;;;;;;;2.22;1.75;;;;;;;19.56;63.20;94882.41;5095986;28;20693;-88
2022/07/04 03:19:22;;;;;;;2.30;1.80;;;;;;;19.92;62.54;94879.97;5094992;28;20276;-88
2022/07/04 03:21:49;;;;;;;3.25;2.10;;;;;;;20.41;61.20;94874.84;5096218;28;20260;-87
2022/07/04 03:24:16;;;;;;;2.55;1.67;;;;;;;20.90;59.46;94868.03;5095978;28;20697;-88
2022/07/04 03:26:43;;;;;;;3.70;3.30;;;;;;;21.53;58.12;94872.94;5093532;28;20276;-88
2022/07/04 03:29:10;;;;;;;2.65;2.17;;;;;;;22.08;56.26;94869.06;5092890;28;20251;-87
2022/07/04 03:31:37;;;;;;;2.17;1.83;;;;;;;22.26;55.52;94869.84;5093377;28;20226;-87
2022/07/04 03:34:05;;;;;;;2.63;2.05;;;;;;;22.69;55.96;94860.25;5092790;28;20222;-87
2022/07/04 03:36:31;;;;;;;3.05;2.35;;;;;;;23.28;54.88;94868.72;5093089;28;20191;-87
2022/07/04 03:38:58;;;;;;;1.95;1.63;;;;;;;23.74;54.21;94856.63;5093088;28;20205;-86
2022/07/04 03:41:25;;;;;;;4.22;3.60;;;;;;;24.17;52.94;94868.16;5092624;28;20287;-86
2022/07/04 03:43:52;;;;;;;4.30;3.90;;;;;;;24.79;50.94;94862.41;5092167;28;20746;-86
2022/07/04 03:46:19;;;;;;;4.53;4.13;;;;;;;24.87;50.55;94865.09;5092698;28;20271;-87
2022/07/04 03:48:46;;;;;;;4.05;3.65;;;;;;;25.29;49.50;94853.50;5092521;28;20651;-87
2022/07/04 03:51:14;;;;;;;4.70;3.78;;;;;;;25.99;47.77;94842.56;5092577;28;20226;-88
2022/07/04 03:53:41;;;;;;;4.38;3.97;;;;;;;26.44;47.03;94847.78;5092287;28;20303;-86
2022/07/04 03:56:08;;;;;;;4.57;4.28;;;;;;;26.42;46.88;94847.44;5092163;28;20605;-87
2022/07/04 03:58:34;;;;;;;4.95;4.40;;;;;;;26.98;45.87;94837.25;5092081;28;20676;-87
2022/07/04 04:01:01;;;;;;;5.60;5.10;;;;;;;27.71;45.00;94840.88;5092382;28;20430;-86
2022/07/04 04:06:14;;;;;;;5.75;4.70;;;;;;;28.28;44.38;94843.91;5079581;28;20243;-84
2022/07/04 04:08:41;;;;;;;5.13;4.72;;;;;;;28.73;42.82;94843.09;5092306;28;20202;-86
2022/07/04 04:11:08;;;;;;;5.88;5.38;;;;;;;28.73;42.14;94845.13;5093023;28;20209;-81
2022/07/04 04:13:35;;;;;;;6.72;4.68;;;;;;;29.14;41.00;94838.81;5092201;28;20853;-83
2022/07/04 04:16:01;;;;;;;5.60;5.10;;;;;;;28.84;41.26;94849.19;5092039;28;20194;-87
2022/07/04 04:18:28;;;;;;;4.80;4.40;;;;;;;29.39;40.22;94852.84;5092009;28;20709;-85
2022/07/04 04:20:55;;;;;;;5.72;5.22;;;;;;;29.44;40.01;94838.34;5092242;28;20619;-84
2022/07/04 04:23:23;;;;;;;5.50;4.60;;;;;;;29.80;39.09;94837.25;5093779;28;20231;-85
2022/07/04 04:25:50;;;;;;;5.00;4.60;;;;;;;29.57;39.29;94847.53;5091786;28;20242;-88
2022/07/04 04:28:17;;;;;;;10.68;5.70;;;;;;;28.71;40.70;94851.13;5092024;28;20687;-89
2022/07/04 04:30:44;;;;;;;4.72;4.32;;;;;;;28.44;40.98;94853.44;5091477;28;20639;-86
2022/07/04 04:33:11;;;;;;;4.82;4.43;;;;;;;28.65;40.05;94866.84;5092839;28;20299;-89
2022/07/04 04:35:37;;;;;;;4.25;3.88;;;;;;;29.96;38.36;94862.28;5092456;28;20283;-88
2022/07/04 04:38:04;;;;;;;5.63;4.75;;;;;;;30.02;37.62;94855.75;5092164;28;20232;-86
2022/07/04 04:40:32;;;;;;;4.80;4.47;;;;;;;30.13;37.44;94860.97;5092190;28;20222;-87
2022/07/04 04:42:59;;;;;;;5.22;4.63;;;;;;;30.69;35.87;94857.53;5091668;28;20605;-88
2022/07/04 04:45:26;;;;;;;4.55;4.15;;;;;;;31.35;35.74;94858.38;5091931;28;20194;-88
2022/07/04 04:47:58;;;;;;;4.65;4.25;;;;;;;32.07;34.05;94854.44;5091635;28;20202;-88
2022/07/04 04:50:26;;;;;;;5.47;4.75;;;;;;;32.75;33.44;94844.06;5090763;28;20221;-86
2022/07/04 04:52:53;;;;;;;4.78;4.38;;;;;;;33.25;33.09;94858.72;5091505;28;20245;-87
2022/07/04 04:55:19;;;;;;;4.07;3.78;;;;;;;33.64;31.95;94851.31;5091096;28;20194;-86
2022/07/04 04:57:47;;;;;;;5.28;4.88;;;;;;;33.72;31.88;94853.34;5092175;28;20355;-88
2022/07/04 05:00:15;;;;;;;5.53;4.20;;;;;;;33.75;31.34;94860.84;5091434;28;20202;-87
2022/07/04 05:02:41;;;;;;;4.57;4.18;;;;;;;33.84;32.20;94855.19;5091810;28;20209;-87
2022/07/04 05:05:09;;;;;;;4.85;4.30;;;;;;;33.87;30.94;94857.06;5092433;28;20224;-89
2022/07/04 05:07:36;;;;;;;5.00;4.60;;;;;;;33.46;31.74;94857.78;5100762;28;20206;-89
2022/07/04 05:10:03;;;;;;;4.65;4.30;;;;;;;34.66;30.24;94853.25;5102673;28;20261;-88
2022/07/04 05:12:30;;;;;;;5.18;4.57;;;;;;;34.57;30.47;94856.91;5103633;28;20246;-89
2022/07/04 05:14:58;;;;;;;5.00;4.60;;;;;;;34.75;30.41;94853.19;5098795;28;20709;-88
2022/07/04 05:17:25;;;;;;;5.05;4.60;;;;;;;34.35;30.99;94845.94;5094376;28;20642;-88
2022/07/04 05:19:52;;;;;;;4.80;4.40;;;;;;;35.04;30.02;94844.88;5091517;28;20288;-89
2022/07/04 05:22:19;;;;;;;4.70;4.30;;;;;;;35.28;30.25;94839.97;5091980;28;20206;-88
2022/07/04 05:24:45;;;;;;;6.38;5.20;;;;;;;35.86;28.85;94849.75;5091879;28;20620;-89
2022/07/04 05:27:12;;;;;;;4.80;4.32;;;;;;;36.18;28.63;94847.19;5091145;28;20754;-87
2022/07/04 05:29:39;;;;;;;5.55;4.55;;;;;;;35.67;28.62;94848.38;5090364;28;20271;-89
2022/07/04 05:32:08;;;;;;;4.45;3.67;;;;;;;35.78;28.94;94845.78;5090522;28;20198;-87
2022/07/04 05:34:35;;;;;;;4.45;3.90;;;;;;;35.62;28.65;94851.88;5092136;28;20624;-87
2022/07/04 05:37:03;;;;;;;4.50;3.92;;;;;;;35.79;28.82;94843.75;5091068;28;20198;-89
2022/07/04 05:39:30;;;;;;;4.50;4.13;;;;;;;35.89;28.55;94851.59;5092446;28;20222;-88
2022/07/04 05:41:57;;;;;;;6.70;4.32;;;;;;;34.27;30.76;94853.19;5091612;28;20214;-86
2022/07/04 05:44:24;;;;;;;4.43;4.13;;;;;;;34.31;31.09;94853.75;5093398;28;20766;-88
2022/07/04 05:46:50;;;;;;;4.68;3.53;;;;;;;34.08;30.45;94851.66;5098834;28;20669;-83
2022/07/04 05:49:18;;;;;;;4.40;3.83;;;;;;;33.38;30.17;94856.53;5097278;28;20222;-84
2022/07/04 05:51:45;;;;;;;5.53;3.83;;;;;;;32.43;31.62;94862.97;5101500;28;20627;-91
2022/07/04 05:54:12;;;;;;;4.00;3.70;;;;;;;32.48;31.22;94856.75;5091287;28;20637;-89
2022/07/04 05:56:41;;;;;;;4.47;4.10;;;;;;;33.16;31.41;94857.47;5091958;28;20221;-90
2022/07/04 05:59:09;;;;;;;4.47;4.03;;;;;;;32.07;32.72;94868.44;5091678;28;20245;-85
2022/07/04 06:01:35;;;;;;;4.70;4.30;;;;;;;32.31;32.88;94861.09;5094601;28;20259;-85
2022/07/04 06:04:03;;;;;;;4.93;4.28;;;;;;;31.35;34.10;94864.00;5095065;28;20731;-85
2022/07/04 06:06:31;;;;;;;4.80;4.40;;;;;;;30.23;35.87;94876.63;5095918;28;20202;-89
2022/07/04 06:08:58;;;;;;;4.15;3.83;;;;;;;29.97;35.99;94875.06;5095532;28;20222;-87
2022/07/04 06:11:25;;;;;;;4.35;3.95;;;;;;;32.17;32.63;94844.81;5095347;28;20230;-89
2022/07/04 06:13:52;;;;;;;4.25;3.85;;;;;;;34.04;31.72;94859.50;5095584;28;20350;-89
2022/07/04 06:16:19;;;;;;;4.95;3.80;;;;;;;32.40;32.49;94855.47;5095849;28;20279;-83
2022/07/04 06:18:46;;;;;;;4.32;4.00;;;;;;;31.69;33.40;94866.72;5094992;28;20226;-90
2022/07/04 06:21:12;;;;;;;4.63;3.70;;;;;;;32.71;32.30;94851.81;5096162;28;20209;-89
2022/07/04 06:23:41;;;;;;;4.93;4.43;;;;;;;33.04;31.73;94861.22;5095028;28;20295;-88
2022/07/04 06:26:09;;;;;;;5.35;4.20;;;;;;;32.93;32.07;94855.28;5094889;28;20225;-79
2022/07/04 06:28:35;;;;;;;5.43;3.67;;;;;;;33.26;31.24;94854.66;5094166;28;20238;-79
2022/07/04 06:31:02;;;;;;;5.13;4.22;;;;;;;34.71;29.43;94846.97;5094192;28;20199;-79
2022/07/04 06:33:29;;;;;;;5.10;4.65;;;;;;;33.58;30.57;94856.81;5093998;28;20291;-79
2022/07/04 06:35:55;;;;;;;4.95;4.28;;;;;;;31.74;33.65;94868.91;5094039;28;20222;-79
2022/07/04 06:38:23;;;;;;;4.75;4.35;;;;;;;33.55;31.09;94854.94;5094131;28;20599;-79
2022/07/04 06:40:53;;;;;;;6.18;4.05;;;;;;;35.24;29.37;94847.84;5093927;28;20230;-79
2022/07/04 06:43:21;;;;;;;4.80;4.40;;;;;;;35.76;28.11;94842.66;5094025;28;20218;-79
2022/07/04 06:45:47;;;;;;;4.25;3.90;;;;;;;35.62;27.65;94840.59;5094029;28;20217;-79
2022/07/04 06:48:14;;;;;;;6.05;4.50;;;;;;;34.90;28.71;94842.78;5094372;28;20217;-79
2022/07/04 06:50:41;;;;;;;4.68;4.28;;;;;;;34.34;29.48;94847.19;5093565;28;20202;-78
2022/07/04 06:53:10;;;;;;;6.30;3.90;;;;;;;33.96;29.97;94849.84;5093745;28;20610;-78
2022/07/04 06:55:37;;;;;;;4.03;3.30;;;;;;;34.82;29.14;94835.97;5093842;28;20222;-79
2022/07/04 06:58:08;;;;;;;5.22;3.20;;;;;;;35.36;27.94;94836.78;5093356;28;20665;-79
2022/07/04 07:00:35;;;;;;;4.82;2.90;;;;;;;34.25;29.94;94838.78;5093663;28;20190;-79
2022/07/04 07:03:03;;;;;;;3.63;3.22;;;;;;;33.11;30.34;94841.22;5094059;28;20538;-78
2022/07/04 07:05:30;;;;;;;3.55;3.08;;;;;;;32.76;32.17;94840.78;5093341;28;20202;-80
2022/07/04 07:07:57;;;;;;;3.95;3.10;;;;;;;33.44;30.87;94832.19;5093541;28;20313;-79
2022/07/04 07:10:24;;;;;;;3.65;2.97;;;;;;;33.46;30.27;94835.28;5093574;28;20251;-79
2022/07/04 07:12:51;;;;;;;4.78;3.28;;;;;;;35.02;28.87;94827.66;5093287;28;20238;-79
2022/07/04 07:15:19;;;;;;;5.55;3.03;;;;;;;35.57;27.46;94827.94;5093516;28;20218;-80
2022/07/04 07:17:46;;;;;;;5.22;3.22;;;;;;;35.95;27.96;94815.78;5093403;28;20685;-79
2022/07/04 07:20:13;;;;;;;5.22;2.85;;;;;;;35.89;27.25;94809.28;5092938;28;20653;-79
2022/07/04 07:22:41;;;;;;;4.78;3.33;;;;;;;35.45;27.27;94820.56;5093243;28;20650;-79
2022/07/04 07:25:09;;;;;;;3.33;3.03;;;;;;;34.19;30.07;94824.56;5093164;28;20226;-78
2022/07/04 07:27:35;;;;;;;4.53;3.08;;;;;;;34.51;29.00;94823.03;5093430;28;20309;-79
2022/07/04 07:30:02;;;;;;;5.15;3.38;;;;;;;35.08;30.35;94813.69;5092642;28;20612;-79
2022/07/04 07:32:31;;;;;;;3.88;3.03;;;;;;;33.03;30.69;94825.97;5092401;28;20202;-78
2022/07/04 07:34:58;;;;;;;4.65;3.38;;;;;;;34.54;29.61;94815.66;5092920;28;20227;-79
2022/07/04 07:37:26;;;;;;;3.58;3.28;;;;;;;35.93;28.25;94815.53;5093029;28;20206;-79
2022/07/04 07:39:53;;;;;;;7.97;3.30;;;;;;;36.28;27.14;94812.72;5092981;28;20285;-79
2022/07/04 07:42:20;;;;;;;3.95;3.53;;;;;;;36.67;27.16;94810.44;5092640;28;20636;-79
2022/07/04 07:44:46;;;;;;;3.83;3.40;;;;;;;36.58;28.57;94807.75;5092542;28;20218;-79
2022/07/04 07:47:13;;;;;;;3.83;3.38;;;;;;;36.07;28.29;94807.53;5092888;28;20268;-79
2022/07/04 07:49:42;;;;;;;6.07;3.92;;;;;;;35.00;29.12;94806.88;5092450;28;20657;-80
2022/07/04 07:52:09;;;;;;;4.35;3.95;;;;;;;35.07;29.86;94812.91;5092373;28;20230;-80
2022/07/04 07:54:36;;;;;;;5.03;4.10;;;;;;;35.72;29.20;94811.03;5092606;28;20230;-80
2022/07/04 07:57:03;;;;;;;4.35;3.95;;;;;;;36.17;28.52;94806.13;5092776;28;20199;-80
2022/07/04 07:59:30;;;;;;;4.78;4.22;;;;;;;35.32;29.47;94805.19;5092394;28;20206;-79
2022/07/04 08:01:57;;;;;;;5.20;4.70;;;;;;;33.78;31.23;94812.09;5092381;28;20437;-78
2022/07/04 08:04:34;;;;;;;7.57;4.90;;;;;;;32.76;33.76;94817.53;5092091;28;20643;-79
2022/07/04 08:07:04;;;;;;;4.93;4.57;;;;;;;33.75;31.62;94807.44;5091801;28;20662;-79
2022/07/04 08:09:32;;;;;;;5.15;4.65;;;;;;;33.59;31.62;94809.81;5092637;28;20268;-79
2022/07/04 08:11:59;;;;;;;5.60;5.10;;;;;;;33.81;32.60;94799.91;5092102;28;20679;-79
2022/07/04 08:14:26;;;;;;;5.68;5.05;;;;;;;32.96;33.16;94801.00;5092575;28;20240;-79
2022/07/04 08:16:53;;;;;;;7.68;5.25;;;;;;;33.13;31.92;94805.03;5092377;28;20206;-79
2022/07/04 08:19:20;;;;;;;6.72;5.22;;;;;;;31.50;34.65;94814.59;5092205;28;20271;-78
2022/07/04 08:21:47;;;;;;;5.57;5.15;;;;;;;31.63;35.68;94812.50;5092091;28;20623;-79
2022/07/04 08:24:16;;;;;;;5.80;5.30;;;;;;;32.15;35.11;94808.03;5091034;28;20228;-79
2022/07/04 08:26:43;;;;;;;6.35;5.70;;;;;;;31.76;35.37;94804.78;5092085;28;20307;-78
2022/07/04 08:29:11;;;;;;;5.57;5.07;;;;;;;32.67;34.49;94792.22;5092154;28;20301;-79
2022/07/04 08:31:37;;;;;;;6.30;5.65;;;;;;;33.57;32.59;94784.22;5092116;28;20210;-77
2022/07/04 08:34:04;;;;;;;6.30;5.70;;;;;;;33.63;32.39;94799.94;5091672;28;20810;-74
2022/07/04 08:36:31;;;;;;;6.28;5.68;;;;;;;32.62;34.05;94787.25;5092022;28;20282;-79
2022/07/04 08:38:58;;;;;;;6.57;5.97;;;;;;;31.95;35.01;94799.25;5091496;28;20218;-77
2022/07/04 08:41:27;;;;;;;5.63;5.10;;;;;;;32.49;34.82;94788.19;5091961;28;20255;-79
2022/07/04 08:43:56;;;;;;;10.25;9.55;;;;;;;31.89;34.80;94792.69;5092100;28;20227;-78
2022/07/04 08:46:28;;;;;;;11.13;10.32;;;;;;;31.61;36.34;94786.19;5091636;28;20226;-79
2022/07/04 08:48:56;;;;;;;14.75;13.65;;;;;;;31.93;36.83;94784.94;5091764;28;20633;-80
2022/07/04 08:51:41;;;;;;;13.38;12.38;;;;;;;32.11;35.56;94782.97;5091730;28;20307;-80
2022/07/04 08:59:34;;;;;;;13.88;12.57;;;;;;;31.45;37.97;94784.38;5065724;28;20226;-79
2022/07/04 09:02:01;;;;;;;16.27;14.80;;;;;;;31.63;37.73;94783.69;5091654;28;20247;-80
2022/07/04 09:04:29;;;;;;;15.50;14.27;;;;;;;31.50;37.18;94781.00;5090919;28;20194;-78
2022/07/04 09:06:57;;;;;;;20.88;19.55;;;;;;;31.42;37.05;94782.53;5091581;28;20267;-79
2022/07/04 09:09:25;;;;;;;13.90;12.88;;;;;;;31.19;38.23;94780.19;5090980;28;20279;-79
2022/07/04 09:11:53;;;;;;;13.13;12.23;;;;;;;31.39;38.81;94780.63;5091388;28;20647;-80
2022/07/04 09:14:20;;;;;;;11.25;10.25;;;;;;;32.13;37.37;94785.28;5091566;28;20230;-80
2022/07/04 09:16:50;;;;;;;12.45;11.63;;;;;;;31.53;36.91;94791.28;5091016;28;20218;-81
2022/07/04 09:19:21;;;;;;;10.88;10.05;;;;;;;30.98;38.28;94785.34;5091429;28;20222;-80
2022/07/04 09:21:49;;;;;;;9.57;8.77;;;;;;;30.94;40.33;94779.09;5091583;28;20226;-79
2022/07/04 09:24:16;;;;;;;11.63;10.82;;;;;;;31.76;38.17;94773.97;5091159;28;20566;-80
2022/07/04 09:26:46;;;;;;;10.55;9.75;;;;;;;32.04;37.02;94782.47;5090737;28;20230;-80
2022/07/04 09:29:14;;;;;;;9.75;8.82;;;;;;;32.01;37.17;94780.59;5091278;28;20209;-80
2022/07/04 09:31:41;;;;;;;8.90;8.10;;;;;;;31.96;37.27;94778.41;5091353;28;20218;-80
2022/07/04 09:34:08;;;;;;;9.75;9.02;;;;;;;32.02;36.15;94770.94;5091162;28;20222;-80
2022/07/04 09:36:42;;;;;;;9.20;7.68;;;;;;;31.49;37.49;94771.03;5094416;28;20327;-79
2022/07/04 09:39:12;;;;;;;8.45;7.50;;;;;;;31.91;37.23;94765.78;5095447;28;20267;-81
2022/07/04 09:41:54;;;;;;;9.63;8.57;;;;;;;32.85;37.93;94761.41;5095049;28;20214;-81
2022/07/04 09:44:23;;;;;;;9.90;9.20;;;;;;;32.94;37.18;94760.63;5095021;28;20264;-78
2022/07/04 09:46:50;;;;;;;9.40;8.65;;;;;;;32.94;36.80;94758.56;5095064;28;20279;-76
2022/07/04 09:49:17;;;;;;;9.95;9.20;;;;;;;31.47;39.32;94761.53;5094730;28;20801;-79
2022/07/04 09:51:45;;;;;;;10.48;9.68;;;;;;;32.44;38.92;94763.56;5095254;28;20255;-79
2022/07/04 09:54:18;;;;;;;8.73;8.13;;;;;;;32.46;38.10;94765.91;5094703;28;20244;-79
2022/07/04 09:56:46;;;;;;;9.45;8.70;;;;;;;31.66;39.06;94771.59;5094686;28;20229;-79
2022/07/04 09:59:14;;;;;;;10.25;9.25;;;;;;;30.66;40.49;94766.91;5094509;28;20198;-79
2022/07/04 10:01:43;;;;;;;9.38;8.57;;;;;;;31.74;38.62;94761.66;5094728;28;20226;-80
2022/07/04 10:04:11;;;;;;;9.55;8.93;;;;;;;31.75;38.93;94763.22;5094872;28;20229;-78
2022/07/04 10:06:39;;;;;;;9.85;9.00;;;;;;;32.04;38.00;94768.44;5094473;28;20202;-78
2022/07/04 10:09:11;;;;;;;8.27;7.53;;;;;;;32.70;37.02;94752.03;5094293;28;20299;-79
2022/07/04 10:11:39;;;;;;;9.07;8.38;;;;;;;32.71;36.73;94756.38;5095040;28;20218;-81
2022/07/04 10:14:08;;;;;;;8.65;7.95;;;;;;;32.99;35.75;94763.56;5094773;28;20688;-80
2022/07/04 10:16:35;;;;;;;10.30;9.40;;;;;;;32.92;36.03;94760.31;5094297;28;20792;-80
2022/07/04 10:19:04;;;;;;;8.68;8.07;;;;;;;31.94;37.83;94764.06;5094516;28;20738;-80
2022/07/04 10:21:31;;;;;;;8.75;7.85;;;;;;;31.95;37.92;94760.03;5094405;28;20218;-77
2022/07/04 10:23:58;;;;;;;9.10;8.40;;;;;;;32.44;36.93;94752.34;5094868;28;20218;-79
2022/07/04 10:26:27;;;;;;;10.32;9.52;;;;;;;32.96;36.61;94752.50;5093997;28;20300;-80
2022/07/04 10:28:54;;;;;;;8.88;8.18;;;;;;;32.82;36.48;94759.53;5094057;28;20263;-80
2022/07/04 10:31:23;;;;;;;9.48;8.77;;;;;;;33.23;37.79;94755.25;5094042;28;20275;-80
2022/07/04 10:33:51;;;;;;;10.40;9.65;;;;;;;32.99;37.18;94746.72;5094168;28;20592;-78
2022/07/04 10:36:21;;;;;;;8.63;8.02;;;;;;;31.60;37.64;94751.78;5093843;28;20279;-80
2022/07/04 10:42:10;;;;;;;9.32;8.63;;;;;;;31.36;39.01;94743.13;5093630;28;20253;-79
2022/07/04 10:44:37;;;;;;;8.70;7.90;;;;;;;32.08;36.63;94741.06;5093705;28;20202;-80
2022/07/04 10:47:05;;;;;;;8.95;8.25;;;;;;;33.05;35.47;94732.84;5093091;28;20310;-79
2022/07/04 10:49:33;;;;;;;9.63;8.85;;;;;;;33.39;35.23;94737.28;5094055;28;20599;-81
2022/07/04 10:55:23;;;;;;;9.60;8.82;;;;;;;33.53;34.55;94734.56;5085867;28;20224;-79
2022/07/04 10:57:50;;;;;;;9.23;8.52;;;;;;;33.21;34.66;94729.69;5093836;28;20268;-78
2022/07/04 11:00:17;;;;;;;8.80;8.10;;;;;;;32.76;35.58;94733.34;5093406;28;20769;-77
2022/07/04 11:46:29;;;;;;;8.80;8.10;;;;;;;31.42;37.39;94701.31;5092271;28;20763;-77
2022/07/04 11:49:08;;;;;;;9.35;8.48;;;;;;;32.01;38.04;94702.09;5092519;28;20673;-78
2022/07/04 11:51:35;;;;;;;10.43;9.63;;;;;;;32.50;36.40;94687.97;5080286;28;20641;-78
2022/07/04 11:54:05;;;;;;;9.60;8.80;;;;;;;32.55;35.31;94683.75;5092566;28;20229;-78
2022/07/04 11:56:31;;;;;;;8.25;7.45;;;;;;;32.94;37.56;94671.53;5093093;28;20267;-79
2022/07/04 11:59:11;;;;;;;10.50;9.70;;;;;;;33.23;35.99;94670.22;5092651;28;20218;-79
2022/07/04 12:01:39;;;;;;;9.82;9.05;;;;;;;33.71;34.56;94666.28;5091836;28;20271;-79
2022/07/04 12:04:14;;;;;;;8.52;7.85;;;;;;;33.21;35.25;94662.28;5092554;28;20276;-79
2022/07/04 12:06:42;;;;;;;9.57;8.88;;;;;;;32.17;38.25;94659.75;5092955;28;20210;-79
2022/07/04 12:09:09;;;;;;;10.40;9.60;;;;;;;31.69;37.93;94669.84;5092611;28;20222;-78
2022/07/04 12:11:55;;;;;;;11.77;10.88;;;;;;;31.96;36.98;94660.69;5092231;28;20309;-78
2022/07/04 12:14:22;;;;;;;11.38;10.57;;;;;;;32.08;37.61;94656.94;5080264;28;20286;-77
2022/07/04 12:17:09;;;;;;;8.95;8.25;;;;;;;31.89;36.98;94660.97;5092192;28;20718;-75
2022/07/04 12:19:35;;;;;;;9.57;8.82;;;;;;;31.88;37.92;94659.41;5092318;28;20702;-79
2022/07/04 12:22:02;;;;;;;10.77;9.77;;;;;;;32.87;36.90;94659.88;5092010;28;20202;-79
2022/07/04 12:24:39;;;;;;;10.65;9.77;;;;;;;33.59;35.93;94653.22;5092232;28;20218;-79
2022/07/04 12:27:06;;;;;;;10.45;9.55;;;;;;;33.16;35.69;94649.66;5092163;28;20233;-77
2022/07/04 12:32:13;;;;;;;10.27;9.50;;;;;;;32.35;37.94;94647.78;5879474;23;20236;-79
2022/07/04 12:34:41;;;;;;;10.38;9.68;;;;;;;32.13;38.18;94653.50;4991735;28;20218;-76
2022/07/04 12:37:10;;;;;;;9.77;8.98;;;;;;;32.24;38.18;94645.47;4992457;28;20198;-81
2022/07/04 12:39:39;;;;;;;11.18;10.38;;;;;;;32.28;37.67;94642.47;4992420;28;20212;-75